Time;durP1;ratioP1;P1;durP2;ratioP2;P2;SDS_P1;SDS_P2;PMS_P1;PMS_P2;Temp;Humidity;BMP_temperature;BMP_pressure;BME280_temperature;BME280_humidity;BME280_pressure;Samples;Min_cycle;Max_cycle;Signal;HPM_P1;HPM_P2
2021/05/23 00:01:09;;;;;;;7.80;4.28;;;;;;;15.13;66.18;98750.09;5117931;28;20044;-94
2021/05/23 00:03:35;;;;;;;7.78;4.20;;;;;;;15.04;65.41;98723.72;5117601;28;20043;-94
2021/05/23 00:06:03;;;;;;;5.70;3.90;;;;;;;15.26;65.00;98745.91;5117327;28;20043;-94
2021/05/23 00:08:30;;;;;;;10.25;3.88;;;;;;;15.09;65.01;98722.56;5117923;28;20042;-94
2021/05/23 00:10:58;;;;;;;9.65;3.90;;;;;;;15.12;65.70;98729.63;5117366;28;20049;-94
2021/05/23 00:13:26;;;;;;;8.63;4.38;;;;;;;15.27;66.68;98757.50;5117702;28;20052;-93
2021/05/23 00:15:56;;;;;;;12.23;4.82;;;;;;;15.27;66.29;98761.03;5117634;28;20039;-92
2021/05/23 00:18:25;;;;;;;7.57;4.00;;;;;;;15.22;65.78;98749.66;5116851;28;20478;-94
2021/05/23 00:20:52;;;;;;;10.68;4.03;;;;;;;15.18;67.53;98740.91;5117044;28;20039;-94
2021/05/23 00:23:18;;;;;;;10.25;4.13;;;;;;;15.25;66.09;98749.53;5117014;28;20040;-94
2021/05/23 00:25:45;;;;;;;9.25;4.68;;;;;;;15.13;66.21;98729.53;5117487;28;20040;-94
2021/05/23 00:28:12;;;;;;;5.82;3.88;;;;;;;15.21;66.23;98747.94;5117389;28;20040;-94
2021/05/23 00:30:39;;;;;;;6.68;3.78;;;;;;;15.15;66.09;98726.78;5116889;28;20134;-94
2021/05/23 00:33:06;;;;;;;6.43;3.55;;;;;;;15.14;66.22;98725.06;5127996;27;20062;-94
2021/05/23 00:35:33;;;;;;;7.50;3.58;;;;;;;15.13;66.73;98723.31;5138656;27;20369;-95
2021/05/23 00:37:59;;;;;;;8.90;3.97;;;;;;;15.16;66.58;98728.53;5138180;27;20447;-94
2021/05/23 00:40:25;;;;;;;5.65;3.75;;;;;;;15.09;66.51;98717.22;5138570;27;20130;-95
2021/05/23 00:42:52;;;;;;;6.93;4.38;;;;;;;15.13;66.35;98737.56;5138566;27;20035;-95
2021/05/23 00:45:19;;;;;;;7.45;4.00;;;;;;;15.16;66.88;98733.88;5138219;27;20039;-95
2021/05/23 00:47:46;;;;;;;6.03;3.75;;;;;;;15.10;67.01;98737.72;5138396;27;20035;-94
2021/05/23 00:50:16;;;;;;;9.05;4.13;;;;;;;15.06;66.46;98735.25;5137995;27;20043;-95
2021/05/23 00:52:42;;;;;;;8.38;3.50;;;;;;;14.99;66.44;98714.09;5137889;27;20054;-94
2021/05/23 00:55:09;;;;;;;9.75;3.92;;;;;;;15.09;66.13;98721.69;5137765;27;20073;-94
2021/05/23 00:57:35;;;;;;;6.95;3.80;;;;;;;15.16;66.33;98723.19;5137941;27;20047;-94
2021/05/23 01:00:05;;;;;;;10.55;4.65;;;;;;;15.07;65.47;98712.88;5137782;27;20117;-94
2021/05/23 01:02:43;;;;;;;10.13;4.97;;;;;;;15.19;65.65;98734.59;5137166;27;20151;-94
2021/05/23 01:05:11;;;;;;;8.18;3.78;;;;;;;15.27;65.49;98736.06;5137469;27;20035;-95
2021/05/23 01:07:39;;;;;;;8.50;3.83;;;;;;;15.17;65.94;98719.53;5137311;27;20036;-95
2021/05/23 01:10:07;;;;;;;9.35;3.75;;;;;;;15.12;65.26;98714.41;5137131;27;20134;-94
2021/05/23 01:13:25;;;;;;;8.52;3.90;;;;;;;15.23;65.35;98732.66;5137061;27;20110;-93
2021/05/23 01:15:53;;;;;;;7.80;3.50;;;;;;;15.22;63.10;98732.72;5136722;27;20088;-93
2021/05/23 01:18:23;;;;;;;6.32;3.58;;;;;;;15.26;62.73;98740.53;5135812;27;20056;-94
2021/05/23 01:20:52;;;;;;;7.93;4.18;;;;;;;15.24;62.37;98712.94;5136446;27;20082;-93
2021/05/23 01:23:23;;;;;;;;;;;;;;;15.40;62.78;98751.50;5136803;27;20041;-94
2021/05/23 01:25:54;;;;;;;7.90;3.88;;;;;;;15.40;61.94;98743.44;5136765;27;19961;-94
2021/05/23 01:28:22;;;;;;;8.52;3.50;;;;;;;15.39;62.05;98730.97;5135692;27;20043;-93
2021/05/23 01:30:50;;;;;;;7.20;4.03;;;;;;;15.38;62.50;98728.41;5136667;27;20550;-94
2021/05/23 01:33:19;;;;;;;7.18;3.45;;;;;;;15.44;61.99;98749.53;5136377;28;20134;-95
2021/05/23 01:35:47;;;;;;;5.93;3.47;;;;;;;15.41;61.81;98739.81;5137055;27;20039;-95
2021/05/23 01:38:16;;;;;;;7.22;3.75;;;;;;;15.39;61.62;98741.69;5136727;27;20670;-94
2021/05/23 01:40:42;;;;;;;6.50;3.60;;;;;;;15.43;61.61;98745.13;5136522;27;20046;-94
2021/05/23 01:43:10;;;;;;;8.63;3.42;;;;;;;15.38;62.16;98736.44;5136577;27;20658;-94
2021/05/23 01:45:37;;;;;;;11.10;3.97;;;;;;;15.38;61.84;98733.75;5136459;27;20099;-94
2021/05/23 01:48:05;;;;;;;8.48;3.67;;;;;;;15.36;62.13;98727.59;5136951;27;20043;-94
2021/05/23 01:50:31;;;;;;;7.07;3.65;;;;;;;15.39;61.39;98727.44;5135953;27;20047;-94
2021/05/23 01:52:59;;;;;;;7.53;3.95;;;;;;;15.33;61.01;98722.38;5136172;27;20080;-93
2021/05/23 01:55:25;;;;;;;9.02;3.60;;;;;;;15.38;61.10;98729.25;5136118;27;20045;-93
2021/05/23 01:57:52;;;;;;;5.65;3.33;;;;;;;15.32;61.13;98718.81;5136245;27;20073;-94
2021/05/23 02:00:22;;;;;;;8.50;3.38;;;;;;;15.47;61.01;98745.84;5136221;27;20122;-93
2021/05/23 02:02:48;;;;;;;6.25;3.10;;;;;;;15.42;61.27;98740.72;5136292;27;20031;-92
2021/05/23 02:05:14;;;;;;;7.97;3.53;;;;;;;15.28;60.72;98714.53;5138516;27;20050;-93
2021/05/23 02:07:41;;;;;;;8.13;4.13;;;;;;;15.45;61.84;98734.31;5141058;27;20047;-93
2021/05/23 02:10:09;;;;;;;7.97;3.38;;;;;;;15.44;60.83;98743.28;5139837;27;20137;-95
2021/05/23 02:12:35;;;;;;;9.27;3.47;;;;;;;15.44;61.23;98733.47;5139928;27;20047;-93
2021/05/23 02:15:01;;;;;;;7.32;3.47;;;;;;;15.49;60.70;98743.97;5139616;27;20579;-94
2021/05/23 02:17:29;;;;;;;9.10;4.03;;;;;;;15.39;60.39;98733.66;5138952;27;20047;-93
2021/05/23 02:19:55;;;;;;;7.25;3.60;;;;;;;15.41;61.03;98739.81;5139637;27;20043;-93
2021/05/23 02:22:20;;;;;;;11.88;3.53;;;;;;;15.50;60.84;98756.41;5139388;27;20560;-93
2021/05/23 02:24:46;;;;;;;6.10;3.40;;;;;;;15.43;60.84;98741.56;5139740;27;20081;-92
2021/05/23 02:27:12;;;;;;;9.88;3.60;;;;;;;15.46;61.24;98746.78;5139747;27;20043;-94
2021/05/23 02:29:38;;;;;;;7.28;3.70;;;;;;;15.51;60.82;98753.66;5139707;27;20039;-95
2021/05/23 02:32:06;;;;;;;10.85;3.75;;;;;;;15.34;61.41;98721.44;5140488;27;20130;-94
2021/05/23 02:34:33;;;;;;;9.52;4.50;;;;;;;15.45;62.44;98739.69;5140568;27;20047;-94
2021/05/23 02:36:59;;;;;;;7.93;3.58;;;;;;;15.40;62.49;98738.09;5140766;27;20494;-94
2021/05/23 02:39:25;;;;;;;7.65;3.63;;;;;;;15.17;62.85;98724.91;5140445;27;20049;-95
2021/05/23 02:41:51;;;;;;;7.05;3.67;;;;;;;15.28;62.57;98735.97;5140576;27;20043;-94
2021/05/23 02:44:17;;;;;;;8.40;3.72;;;;;;;15.22;63.47;98727.34;5140142;27;20039;-95
2021/05/23 02:46:44;;;;;;;7.13;3.60;;;;;;;15.20;63.81;98727.41;5139902;27;20047;-93
2021/05/23 02:49:13;;;;;;;9.25;3.50;;;;;;;15.16;65.25;98732.06;5140324;27;20134;-94
2021/05/23 02:51:40;;;;;;;7.53;3.45;;;;;;;15.16;63.53;98726.72;5140864;27;20036;-94
2021/05/23 02:54:07;;;;;;;8.85;3.65;;;;;;;15.15;63.84;98729.47;5140518;27;20053;-94
2021/05/23 02:56:33;;;;;;;7.28;3.30;;;;;;;15.12;64.85;98726.94;5140225;27;20044;-94
2021/05/23 02:58:59;;;;;;;7.30;3.70;;;;;;;15.07;64.97;98718.22;5139571;27;20095;-94
2021/05/23 03:01:24;;;;;;;10.45;3.78;;;;;;;15.22;64.81;98735.41;5140318;27;20524;-95
2021/05/23 03:03:50;;;;;;;8.35;3.78;;;;;;;15.18;64.76;98729.34;5140138;27;20147;-95
2021/05/23 03:06:16;;;;;;;7.35;3.53;;;;;;;15.20;63.92;98732.78;5140388;27;20050;-95
2021/05/23 03:08:43;;;;;;;6.90;4.00;;;;;;;15.14;64.68;98722.38;5140121;27;20066;-94
2021/05/23 03:11:09;;;;;;;7.03;3.65;;;;;;;15.14;65.49;98723.25;5140177;27;20039;-93
2021/05/23 03:13:35;;;;;;;8.05;3.90;;;;;;;15.00;65.33;98699.75;5140086;27;20069;-95
2021/05/23 03:16:01;;;;;;;7.18;3.65;;;;;;;15.01;65.33;98708.69;5139383;27;20047;-93
2021/05/23 03:18:27;;;;;;;7.82;3.67;;;;;;;14.89;65.69;98694.03;5139724;27;20071;-94
2021/05/23 03:20:53;;;;;;;9.73;3.83;;;;;;;14.94;66.31;98702.75;5140462;27;20039;-94
2021/05/23 03:23:19;;;;;;;11.52;4.25;;;;;;;14.83;66.79;98696.97;5139854;27;20051;-95
2021/05/23 03:25:55;;;;;;;8.70;3.60;;;;;;;14.91;66.21;98712.72;5146843;27;20520;-96
2021/05/23 03:28:21;;;;;;;7.65;3.38;;;;;;;14.77;66.19;98700.81;5140053;27;20040;-94
2021/05/23 03:30:49;;;;;;;11.18;4.45;;;;;;;14.72;66.24;98697.47;5141740;27;20055;-92
2021/05/23 03:33:15;;;;;;;8.68;5.43;;;;;;;14.86;66.34;98722.78;5139446;27;20047;-94
2021/05/23 03:35:41;;;;;;;8.32;4.78;;;;;;;14.84;66.63;98709.44;5140149;27;20051;-94
2021/05/23 03:38:08;;;;;;;10.65;5.03;;;;;;;14.76;66.84;98720.50;5140346;27;20084;-94
2021/05/23 03:40:36;;;;;;;10.60;5.20;;;;;;;14.65;67.54;98733.47;5140208;27;20094;-94
2021/05/23 03:43:04;;;;;;;9.48;5.03;;;;;;;14.50;68.30;98721.63;5140846;27;20043;-96
2021/05/23 03:45:30;;;;;;;7.88;4.70;;;;;;;14.46;68.20;98725.34;5140803;27;20122;-93
2021/05/23 03:47:57;;;;;;;8.50;4.32;;;;;;;14.61;67.90;98745.25;5140849;27;20050;-95
2021/05/23 03:50:24;;;;;;;9.23;4.43;;;;;;;14.48;68.51;98722.63;5140019;27;20130;-96
2021/05/23 03:52:53;;;;;;;7.80;4.47;;;;;;;14.53;67.97;98737.56;5139758;27;20073;-93
2021/05/23 03:55:21;;;;;;;11.18;4.80;;;;;;;14.50;68.30;98726.97;5139728;27;20096;-94
2021/05/23 03:57:47;;;;;;;9.73;4.65;;;;;;;14.46;69.22;98725.34;5139998;27;20434;-94
2021/05/23 04:00:16;;;;;;;10.45;4.78;;;;;;;14.41;69.83;98734.53;5139646;27;20111;-93
2021/05/23 04:02:44;;;;;;;8.05;4.55;;;;;;;14.48;69.01;98736.00;5140440;27;20135;-95
2021/05/23 04:05:12;;;;;;;11.48;4.53;;;;;;;14.48;69.58;98755.59;5138611;27;20085;-93
2021/05/23 04:07:38;;;;;;;7.85;4.47;;;;;;;14.47;69.33;98742.31;5138201;27;20043;-95
2021/05/23 04:10:06;;;;;;;10.80;4.57;;;;;;;14.60;68.70;98754.25;5138750;27;20095;-93
2021/05/23 04:12:36;;;;;;;9.53;4.30;;;;;;;14.69;69.00;98761.84;5137695;27;20039;-94
2021/05/23 04:15:02;;;;;;;8.10;4.50;;;;;;;14.78;68.93;98771.28;5138179;27;20050;-94
2021/05/23 04:17:29;;;;;;;10.90;3.95;;;;;;;14.60;68.73;98753.38;5137369;27;20051;-96
2021/05/23 04:19:55;;;;;;;9.57;4.18;;;;;;;14.53;68.99;98748.25;5137410;27;20092;-95
2021/05/23 04:22:21;;;;;;;6.72;4.05;;;;;;;14.56;68.97;98742.78;5138133;27;20399;-95
2021/05/23 04:24:47;;;;;;;7.40;4.00;;;;;;;14.49;69.58;98745.78;5138220;27;20047;-94
2021/05/23 04:27:14;;;;;;;9.27;3.85;;;;;;;14.66;68.70;98777.16;5138375;27;20039;-94
2021/05/23 04:29:40;;;;;;;7.07;4.22;;;;;;;14.65;68.25;98770.94;5137798;27;20047;-96
2021/05/23 04:32:07;;;;;;;11.23;4.70;;;;;;;14.70;67.83;98768.97;5137302;27;20040;-95
2021/05/23 04:34:35;;;;;;;8.15;4.43;;;;;;;14.62;67.68;98771.09;5138012;27;20046;-94
2021/05/23 04:37:01;;;;;;;11.20;4.30;;;;;;;14.61;67.84;98764.00;5138531;27;20047;-95
2021/05/23 04:39:27;;;;;;;8.68;4.10;;;;;;;14.62;67.25;98770.25;5138667;27;20280;-94
2021/05/23 04:41:53;;;;;;;8.48;4.30;;;;;;;14.64;68.12;98768.34;5138533;27;20049;-94
2021/05/23 04:44:19;;;;;;;7.80;4.20;;;;;;;14.72;68.64;98783.13;5138890;27;20042;-94
2021/05/23 04:46:45;;;;;;;7.97;4.32;;;;;;;14.71;69.19;98780.53;5137972;27;20053;-95
2021/05/23 04:49:11;;;;;;;6.75;3.75;;;;;;;14.74;69.08;98791.97;5137907;27;20047;-95
2021/05/23 04:51:38;;;;;;;8.60;3.80;;;;;;;14.73;70.44;98798.25;5137317;27;20116;-96
2021/05/23 04:54:04;;;;;;;9.07;3.78;;;;;;;14.72;69.38;98801.00;5136415;27;20050;-94
2021/05/23 04:56:30;;;;;;;8.80;4.07;;;;;;;14.71;69.13;98800.13;5137444;27;20047;-94
2021/05/23 04:58:56;;;;;;;8.18;4.32;;;;;;;14.69;69.47;98787.75;5138025;27;20043;-94
2021/05/23 05:01:22;;;;;;;9.20;3.97;;;;;;;14.72;68.72;98799.19;5139365;27;20527;-95
2021/05/23 05:03:48;;;;;;;7.70;4.10;;;;;;;14.90;68.53;98813.59;5138415;27;20110;-95
2021/05/23 05:06:16;;;;;;;9.98;4.18;;;;;;;14.95;68.19;98803.53;5137376;27;20192;-94
2021/05/23 05:08:45;;;;;;;7.50;4.28;;;;;;;14.81;67.56;98789.88;5137990;27;20093;-95
2021/05/23 05:11:11;;;;;;;10.07;3.80;;;;;;;14.96;67.93;98805.28;5137878;27;20077;-95
2021/05/23 05:13:37;;;;;;;8.50;4.00;;;;;;;15.04;67.99;98804.06;5137095;27;20043;-95
2021/05/23 05:16:03;;;;;;;8.35;4.15;;;;;;;15.19;68.35;98817.63;5136562;27;20553;-94
2021/05/23 05:18:30;;;;;;;7.75;4.03;;;;;;;15.36;67.46;98821.38;5135894;27;20043;-95
2021/05/23 05:20:56;;;;;;;8.32;3.75;;;;;;;15.40;66.94;98818.47;5136038;27;20045;-94
2021/05/23 05:23:21;;;;;;;8.10;3.50;;;;;;;15.43;66.86;98805.88;5136701;27;20043;-95
2021/05/23 05:25:48;;;;;;;7.65;3.67;;;;;;;15.48;64.74;98795.81;5137612;27;20047;-95
2021/05/23 05:28:14;;;;;;;7.05;4.40;;;;;;;15.49;64.88;98802.94;5138023;28;20050;-95
2021/05/23 05:30:40;;;;;;;9.85;4.43;;;;;;;15.29;64.74;98809.19;5137262;27;20043;-94
2021/05/23 05:33:06;;;;;;;9.30;4.45;;;;;;;15.27;65.57;98809.28;5136856;27;20461;-95
2021/05/23 05:35:32;;;;;;;6.35;4.13;;;;;;;15.18;65.24;98815.91;5137215;27;20074;-93
2021/05/23 05:37:58;;;;;;;11.38;4.50;;;;;;;15.22;65.68;98811.25;5137528;27;20045;-95
2021/05/23 05:40:24;;;;;;;8.75;3.97;;;;;;;15.41;65.25;98813.97;5141126;27;20483;-95
2021/05/23 05:42:51;;;;;;;10.43;4.60;;;;;;;15.49;65.64;98809.16;5141634;27;20066;-95
2021/05/23 05:45:17;;;;;;;8.88;4.38;;;;;;;15.60;65.37;98809.50;5141355;27;20106;-95
2021/05/23 05:47:43;;;;;;;7.57;4.32;;;;;;;15.81;65.34;98818.38;5140623;27;20035;-94
2021/05/23 05:50:10;;;;;;;7.32;4.40;;;;;;;15.98;64.69;98814.00;5141677;27;20092;-94
2021/05/23 05:52:36;;;;;;;12.02;5.32;;;;;;;15.93;64.43;98811.56;5142198;27;20135;-96
2021/05/23 05:55:03;;;;;;;10.07;5.05;;;;;;;15.94;63.04;98813.31;5141963;27;20051;-94
2021/05/23 05:57:29;;;;;;;7.65;4.13;;;;;;;16.12;62.51;98819.59;5141580;27;20429;-94
2021/05/23 05:59:56;;;;;;;9.52;4.38;;;;;;;16.30;61.86;98825.84;5142550;27;20138;-94
2021/05/23 06:02:22;;;;;;;7.82;3.80;;;;;;;16.61;60.73;98844.00;5141526;27;20049;-94
2021/05/23 06:04:50;;;;;;;9.35;4.22;;;;;;;16.74;60.55;98841.56;5141717;27;20043;-93
2021/05/23 06:07:16;;;;;;;12.45;4.00;;;;;;;16.96;58.64;98814.47;5141378;27;20047;-93
2021/05/23 06:09:42;;;;;;;8.75;3.75;;;;;;;17.32;57.78;98815.28;5140957;27;20158;-95
2021/05/23 06:12:08;;;;;;;8.52;4.70;;;;;;;17.29;56.87;98800.19;5141529;27;20043;-94
2021/05/23 06:14:34;;;;;;;8.43;4.05;;;;;;;17.69;55.88;98824.03;5142121;27;20058;-93
2021/05/23 06:17:01;;;;;;;7.88;3.92;;;;;;;17.75;55.72;98813.78;5141397;27;20035;-93
2021/05/23 06:19:27;;;;;;;9.23;3.42;;;;;;;17.73;55.36;98807.63;5138929;27;20138;-95
2021/05/23 06:21:53;;;;;;;16.20;6.43;;;;;;;17.75;55.66;98808.41;5139489;27;20047;-94
2021/05/23 06:24:19;;;;;;;8.70;3.53;;;;;;;17.91;55.08;98812.97;5139597;27;20099;-94
2021/05/23 06:26:46;;;;;;;9.45;4.00;;;;;;;18.04;54.71;98805.94;5138632;27;20096;-94
2021/05/23 06:29:12;;;;;;;9.07;3.80;;;;;;;18.11;54.62;98806.44;5139514;27;20039;-94
2021/05/23 06:31:38;;;;;;;7.75;3.70;;;;;;;18.25;55.42;98818.16;5139640;27;20498;-94
2021/05/23 06:34:05;;;;;;;7.18;3.70;;;;;;;17.97;55.24;98808.09;5144540;27;20349;-95
2021/05/23 06:36:31;;;;;;;9.18;4.47;;;;;;;18.10;55.45;98810.13;5127236;27;20492;-94
2021/05/23 06:38:56;;;;;;;8.52;3.85;;;;;;;18.37;55.20;98821.13;5120884;28;20062;-94
2021/05/23 06:41:22;;;;;;;8.23;4.70;;;;;;;18.38;54.81;98795.91;5124658;28;20036;-94
2021/05/23 06:43:48;;;;;;;8.43;4.07;;;;;;;18.62;54.26;98799.84;5120109;28;20132;-93
2021/05/23 06:46:14;;;;;;;8.75;3.83;;;;;;;18.52;55.04;98800.47;5120433;28;20071;-96
2021/05/23 06:48:40;;;;;;;10.68;4.05;;;;;;;18.87;54.68;98810.06;5120391;28;20040;-93
2021/05/23 06:51:07;;;;;;;11.18;4.03;;;;;;;19.08;53.32;98793.53;5126147;27;20043;-95
2021/05/23 06:53:33;;;;;;;11.40;3.80;;;;;;;19.32;53.04;98799.22;5121490;27;20065;-93
2021/05/23 06:55:59;;;;;;;9.05;4.07;;;;;;;19.35;53.67;98799.06;5120011;28;20446;-92
2021/05/23 06:58:25;;;;;;;9.15;4.55;;;;;;;19.59;53.26;98793.94;5118760;27;20036;-96
2021/05/23 07:00:51;;;;;;;6.82;4.00;;;;;;;19.50;53.15;98784.59;5119709;27;20055;-94
2021/05/23 07:03:17;;;;;;;7.22;3.95;;;;;;;19.55;53.08;98795.09;5125790;27;20519;-96
2021/05/23 07:05:43;;;;;;;9.02;4.20;;;;;;;19.74;53.06;98808.31;5136912;27;20135;-95
2021/05/23 07:08:10;;;;;;;7.93;3.80;;;;;;;19.49;53.14;98809.81;5130691;27;20043;-94
2021/05/23 07:10:35;;;;;;;7.65;4.20;;;;;;;19.46;54.10;98814.56;5126426;27;20054;-94
2021/05/23 07:13:01;;;;;;;6.53;3.78;;;;;;;20.04;52.84;98799.22;5139857;27;20043;-95
2021/05/23 07:15:27;;;;;;;9.50;3.70;;;;;;;20.52;50.83;98802.31;5137424;27;20077;-94
2021/05/23 07:17:57;;;;;;;9.57;3.80;;;;;;;20.68;50.24;98786.81;5119084;28;20055;-95
2021/05/23 07:20:23;;;;;;;7.78;3.88;;;;;;;20.93;50.70;98802.22;5119410;28;20051;-94
2021/05/23 07:22:49;;;;;;;9.07;4.00;;;;;;;21.11;49.84;98783.84;5119202;28;20043;-95
2021/05/23 07:25:16;;;;;;;9.70;3.88;;;;;;;20.72;49.98;98796.44;5119316;28;20096;-95
2021/05/23 07:27:43;;;;;;;9.57;4.43;;;;;;;20.52;51.23;98805.88;5137530;27;20503;-95
2021/05/23 07:30:11;;;;;;;9.80;3.80;;;;;;;20.08;52.33;98831.31;5133062;27;20565;-94
2021/05/23 07:32:53;;;;;;;7.45;3.38;;;;;;;19.31;53.91;98818.22;5137207;27;20449;-96
2021/05/23 07:35:20;;;;;;;7.55;3.42;;;;;;;19.36;53.63;98811.56;5138859;27;20075;-96
2021/05/23 07:37:49;;;;;;;8.70;3.55;;;;;;;19.51;53.65;98842.09;5134858;27;20401;-94
2021/05/23 07:40:24;;;;;;;8.15;3.45;;;;;;;19.42;53.35;98818.41;5140640;27;20118;-94
2021/05/23 07:42:51;;;;;;;7.40;3.38;;;;;;;19.55;53.47;98838.25;5123401;27;20054;-94
2021/05/23 07:45:18;;;;;;;6.60;3.72;;;;;;;19.33;54.05;98808.22;5129531;27;20063;-93
2021/05/23 07:48:05;;;;;;;7.88;3.63;;;;;;;19.39;54.27;98815.91;5138947;27;20035;-94
2021/05/23 07:50:39;;;;;;;7.75;3.40;;;;;;;19.66;54.61;98822.25;5124724;27;20442;-94
2021/05/23 07:53:05;;;;;;;23.67;9.63;;;;;;;19.82;53.96;98814.09;5129885;27;20046;-94
2021/05/23 07:55:37;;;;;;;11.60;5.38;;;;;;;19.65;54.72;98806.19;5120487;27;20050;-94
2021/05/23 07:58:06;;;;;;;11.50;4.05;;;;;;;19.85;54.16;98827.38;5128128;27;20036;-93
2021/05/23 08:00:32;;;;;;;8.93;3.50;;;;;;;19.73;54.96;98809.28;5134898;27;20035;-93
2021/05/23 08:03:00;;;;;;;7.63;4.03;;;;;;;20.07;53.61;98796.31;5117615;28;20050;-94
2021/05/23 08:05:27;;;;;;;10.10;4.53;;;;;;;20.53;52.74;98817.53;5124780;27;20047;-93
2021/05/23 08:07:53;;;;;;;7.00;3.25;;;;;;;20.70;52.23;98813.75;5138949;27;20039;-95
2021/05/23 08:10:20;;;;;;;9.15;3.30;;;;;;;20.84;51.88;98823.59;5131606;27;20051;-93
2021/05/23 08:12:50;;;;;;;9.00;3.35;;;;;;;20.73;52.29;98827.03;5129900;27;20115;-94
2021/05/23 08:15:27;;;;;;;8.15;3.55;;;;;;;20.72;52.97;98820.75;5133217;27;20049;-94
2021/05/23 08:17:54;;;;;;;9.98;3.50;;;;;;;21.03;52.66;98829.47;5138915;27;20068;-94
2021/05/23 08:20:21;;;;;;;8.35;3.95;;;;;;;21.15;52.85;98819.66;5124524;27;20107;-92
2021/05/23 08:22:47;;;;;;;9.70;3.97;;;;;;;21.44;52.33;98839.28;5135718;27;20036;-91
2021/05/23 08:25:14;;;;;;;8.20;3.55;;;;;;;21.30;52.35;98817.72;5128813;27;20043;-93
2021/05/23 08:27:40;;;;;;;9.80;3.70;;;;;;;21.61;52.07;98818.28;5123433;27;20377;-94
2021/05/23 08:30:09;;;;;;;6.55;3.75;;;;;;;21.83;51.39;98825.72;5134476;27;20043;-93
2021/05/23 08:32:38;;;;;;;9.45;4.50;;;;;;;21.95;51.04;98808.59;5129032;27;20043;-92
2021/05/23 08:35:06;;;;;;;13.23;7.82;;;;;;;22.88;48.81;98822.41;5134211;27;20047;-93
2021/05/23 08:37:35;;;;;;;11.38;8.93;;;;;;;22.76;48.60;98826.91;5133950;27;20039;-93
2021/05/23 08:40:03;;;;;;;22.35;12.52;;;;;;;22.60;47.97;98811.91;5130351;27;20075;-93
2021/05/23 08:42:30;;;;;;;10.67;5.50;;;;;;;22.13;49.05;98820.75;5123742;27;20051;-91
2021/05/23 08:44:56;;;;;;;12.27;5.65;;;;;;;22.06;49.49;98824.03;5123478;27;20122;-93
2021/05/23 08:47:24;;;;;;;16.77;7.07;;;;;;;22.10;48.49;98815.56;5132339;27;20062;-92
2021/05/23 08:49:51;;;;;;;11.80;5.53;;;;;;;22.12;47.96;98816.31;5131184;27;20409;-92
2021/05/23 08:52:18;;;;;;;13.00;4.00;;;;;;;22.09;48.35;98805.72;5131526;27;20039;-93
2021/05/23 08:54:44;;;;;;;11.35;4.47;;;;;;;22.62;48.11;98827.09;5136754;27;20051;-93
2021/05/23 08:57:18;;;;;;;7.80;4.22;;;;;;;22.94;46.65;98799.34;5133289;27;20046;-93
2021/05/23 08:59:45;;;;;;;8.00;3.85;;;;;;;23.25;45.41;98810.53;5119723;27;20374;-94
2021/05/23 09:02:11;;;;;;;8.55;3.67;;;;;;;23.31;45.64;98813.66;5132927;27;20118;-93
2021/05/23 09:04:48;;;;;;;7.22;3.40;;;;;;;22.56;44.60;98824.84;5121908;27;20050;-91
2021/05/23 09:07:19;;;;;;;10.38;4.20;;;;;;;22.42;45.33;98817.75;5135851;27;20051;-95
2021/05/23 09:09:50;;;;;;;7.85;3.90;;;;;;;22.49;45.04;98812.75;5128370;27;20043;-94
2021/05/23 09:12:17;;;;;;;7.22;3.25;;;;;;;22.62;45.29;98805.44;5132742;27;20484;-93
2021/05/23 09:14:55;;;;;;;6.40;3.03;;;;;;;22.69;45.22;98805.81;5123122;27;20041;-96
2021/05/23 09:17:23;;;;;;;12.88;3.90;;;;;;;23.00;45.17;98828.75;5133665;27;20381;-95
2021/05/23 09:19:50;;;;;;;7.83;3.20;;;;;;;23.05;44.98;98809.41;5128531;28;20038;-93
2021/05/23 09:22:18;;;;;;;10.20;4.32;;;;;;;23.13;45.38;98805.09;5121448;27;20043;-93
2021/05/23 09:24:53;;;;;;;8.53;3.50;;;;;;;23.85;43.42;98817.53;5117004;28;20052;-95
2021/05/23 09:27:20;;;;;;;9.05;3.67;;;;;;;22.43;46.37;98805.09;5120048;28;20300;-95
2021/05/23 09:29:46;;;;;;;8.65;3.70;;;;;;;22.70;46.63;98819.22;5124774;28;20043;-95
2021/05/23 09:32:18;;;;;;;7.57;3.70;;;;;;;23.24;45.05;98820.53;5135472;27;20043;-92
2021/05/23 09:34:48;;;;;;;8.77;3.00;;;;;;;22.37;46.54;98802.84;5123041;27;20493;-95
2021/05/23 09:37:18;;;;;;;7.00;3.35;;;;;;;22.22;46.86;98811.13;5135746;28;20049;-93
2021/05/23 09:39:45;;;;;;;8.85;4.70;;;;;;;22.46;47.17;98807.56;5136947;27;20042;-92
2021/05/23 09:42:13;;;;;;;10.23;3.88;;;;;;;22.19;47.24;98833.00;5135877;27;20051;-94
2021/05/23 09:44:40;;;;;;;8.68;4.15;;;;;;;21.98;47.57;98815.63;5135609;28;20112;-94
2021/05/23 09:50:16;;;;;;;7.10;3.60;;;;;;;22.27;47.46;98816.19;5086953;27;1683697;-94
2021/05/23 09:52:42;;;;;;;8.75;3.30;;;;;;;22.26;47.36;98809.91;5120283;28;20043;-94
2021/05/23 09:55:09;;;;;;;12.27;4.25;;;;;;;21.80;47.87;98818.69;5131880;28;20130;-94
2021/05/23 09:57:35;;;;;;;8.00;3.85;;;;;;;22.11;47.74;98821.84;5131687;28;20126;-95
2021/05/23 10:00:17;;;;;;;6.95;3.58;;;;;;;22.29;47.67;98835.91;5131646;28;20052;-94
2021/05/23 10:02:51;;;;;;;8.00;4.30;;;;;;;22.22;48.06;98819.25;5113918;28;20118;-95
2021/05/23 10:05:22;;;;;;;10.00;3.72;;;;;;;21.90;48.71;98808.03;5124766;28;20120;-96
2021/05/23 10:07:48;;;;;;;7.47;4.13;;;;;;;22.07;48.81;98825.75;5135947;28;20054;-95
2021/05/23 10:10:18;;;;;;;9.82;3.70;;;;;;;22.27;48.51;98808.94;5135104;28;20047;-94
2021/05/23 10:12:44;;;;;;;8.50;4.13;;;;;;;22.23;48.39;98821.00;5136209;28;20039;-94
2021/05/23 10:15:14;;;;;;;11.88;4.30;;;;;;;22.05;47.95;98801.50;5135165;28;20046;-94
2021/05/23 10:17:41;;;;;;;7.47;4.22;;;;;;;22.24;47.86;98821.84;5135315;28;20043;-93
2021/05/23 10:20:12;;;;;;;7.90;4.15;;;;;;;22.10;48.63;98821.00;5123551;28;20044;-93
2021/05/23 10:22:42;;;;;;;6.97;4.13;;;;;;;22.38;47.85;98839.78;5116357;28;20051;-96
2021/05/23 10:25:13;;;;;;;10.35;4.30;;;;;;;22.54;46.82;98813.25;5124170;28;20499;-95
2021/05/23 10:27:46;;;;;;;12.52;5.03;;;;;;;22.57;47.26;98823.84;5135596;28;20106;-95
2021/05/23 10:30:16;;;;;;;12.57;5.03;;;;;;;23.05;45.83;98834.69;5120292;28;20048;-94
2021/05/23 10:32:44;;;;;;;9.23;4.95;;;;;;;23.29;45.71;98842.78;5114001;28;20074;-93
2021/05/23 10:35:13;;;;;;;9.38;3.70;;;;;;;23.95;44.25;98851.09;5127080;28;20043;-94
2021/05/23 10:37:40;;;;;;;7.28;3.50;;;;;;;24.16;43.27;98853.09;5135962;28;20047;-94
2021/05/23 10:40:22;;;;;;;12.23;4.72;;;;;;;23.97;43.64;98867.28;5134909;28;20045;-94
2021/05/23 10:42:54;;;;;;;6.30;3.40;;;;;;;23.47;43.81;98864.88;5124640;28;20469;-96
2021/05/23 10:45:25;;;;;;;9.07;3.72;;;;;;;23.57;44.48;98851.44;5114179;28;20057;-95
2021/05/23 10:47:53;;;;;;;8.45;4.20;;;;;;;23.28;44.61;98829.31;5114335;28;20068;-93
2021/05/23 10:50:31;;;;;;;8.85;3.50;;;;;;;23.45;45.14;98855.13;5127940;28;20373;-93
2021/05/23 10:53:00;;;;;;;7.60;4.40;;;;;;;23.23;46.19;98831.53;5128579;28;20043;-94
2021/05/23 10:55:28;;;;;;;8.80;3.80;;;;;;;22.29;47.41;98852.16;5116125;28;20176;-95
2021/05/23 10:57:58;;;;;;;9.68;4.10;;;;;;;22.81;47.13;98826.53;5134102;28;20059;-95
2021/05/23 11:03:27;;;;;;;9.30;3.63;;;;;;;23.22;46.17;98838.78;5115397;27;20361;-93
2021/05/23 11:06:00;;;;;;;;;;;;;;;23.41;45.30;98838.22;5100588;28;20036;-90
2021/05/23 11:08:29;;;;;;;9.80;3.67;;;;;;;23.65;45.34;98834.53;5104777;28;19924;-92
2021/05/23 11:11:00;;;;;;;11.70;4.53;;;;;;;23.56;45.50;98837.00;5101658;28;20055;-93
2021/05/23 11:13:41;;;;;;;;;;;;;;;;;;;;;
2021/05/23 11:16:14;;;;;;;12.13;4.72;;;;;;;23.12;45.88;98806.09;5108598;28;20044;-91
2021/05/23 11:18:45;;;;;;;9.25;3.95;;;;;;;23.31;46.33;98799.22;5113994;28;20075;-94
2021/05/23 11:21:20;;;;;;;7.28;3.92;;;;;;;23.54;46.00;98817.25;5104928;28;20048;-95
2021/05/23 11:26:50;;;;;;;8.75;3.78;;;;;;;24.22;43.97;98838.09;5120515;27;20345;-94
2021/05/23 11:29:16;;;;;;;8.38;3.95;;;;;;;24.33;43.12;98802.75;5129876;27;20081;-94
2021/05/23 11:34:43;;;;;;;7.35;3.47;;;;;;;24.90;42.52;98812.47;5134239;27;20832;-93
2021/05/23 11:37:11;;;;;;;8.10;3.40;;;;;;;25.39;41.63;98793.75;5135939;27;20088;-93
2021/05/23 11:39:39;;;;;;;8.80;3.53;;;;;;;25.95;38.92;98804.22;5136910;27;20039;-94
2021/05/23 11:42:09;;;;;;;6.25;3.45;;;;;;;25.52;39.87;98788.94;5136913;27;20076;-93
2021/05/23 11:47:54;;;;;;;9.57;3.72;;;;;;;25.28;40.45;98802.00;5117102;27;20125;-95
2021/05/23 11:50:27;;;;;;;7.28;3.17;;;;;;;25.04;40.47;98770.44;5096907;28;20064;-95
2021/05/23 11:55:52;;;;;;;10.48;3.85;;;;;;;25.38;40.72;98775.72;5156600;27;20351;-94